Latest Weather Observations for Cape Flattery

IDQ60801

Issued at 2:05 pm EST Sunday 31 August 2014 (issued every 30 minutes, with the page automatically refreshed every 10 minutes)

About weather observations | Map of weather stations | Latest weather observations for QLD | Other Formats
Station Details ID: 031213 Name: CAPE FLATTERY Lat: -14.97 Lon: 145.31 Height: 18.5 m
Data from the previous 72 hours. | See also: Recent months at Cape Flattery
Date/Time
EST
Temp
°C
App
Temp
°C
Dew
Point
Rel
Hum
%
Delta-T
°C
Wind Press
QNH
hPa
Press
MSL
hPa
Rain
since 9 am
mm
Dir
 
Spd
km/h
Gust
km/h
Spd
kts
Gust
kts
31/02:00pm 25.4 21.3 18.3 65 4.5 SSE 37 46 20 25 1014.2 1014.1 0.0
31/01:30pm 24.9 20.7 18.1 66 4.3 SSE 37 48 20 26 1014.5 1014.4 0.0
31/01:00pm 25.5 22.4 18.9 67 4.2 SSE 33 46 18 25 1014.7 1014.6 0.0
31/12:30pm 25.6 22.1 18.8 66 4.3 SSE 35 43 19 23 1015.0 1014.9 0.0
31/12:00pm 25.9 22.9 19.1 66 4.4 SSE 33 44 18 24 1015.4 1015.3 0.0
31/11:30am 25.7 22.3 19.1 67 4.2 SSE 35 44 19 24 1015.9 1015.8 0.0
31/11:00am 25.0 21.7 18.4 66 4.2 SSE 33 43 18 23 1016.4 1016.3 0.0
31/10:30am 25.0 22.0 18.7 68 4.0 SSE 32 43 17 23 1016.8 1016.7 0.0
31/10:00am 24.3 21.1 18.5 70 3.7 SSE 33 43 18 23 1017.1 1017.0 0.0
31/09:30am 24.7 22.7 19.1 71 3.6 SSE 28 37 15 20 1017.1 1017.0 0.0
31/09:00am 24.3 21.7 18.7 71 3.5 SSE 30 39 16 21 1017.0 1016.9 0.0
31/08:30am 23.6 20.3 18.0 71 3.5 SSE 32 43 17 23 1016.7 1016.6 0.0
31/08:00am 23.8 20.3 17.8 69 3.7 SSE 33 43 18 23 1016.4 1016.3 0.0
31/07:30am 23.5 20.3 18.2 72 3.3 SSE 32 43 17 23 1016.1 1016.0 0.0
31/07:00am 22.8 21.1 18.1 75 2.9 SE 24 30 13 16 1015.8 1015.7 0.0
31/06:30am 22.2 20.3 17.6 75 2.8 SE 24 33 13 18 1015.5 1015.4 0.0
31/06:00am 22.1 19.6 17.2 74 3.0 SSE 26 37 14 20 1015.2 1015.1 0.0
31/05:30am 22.1 19.6 17.2 74 3.0 SSE 26 35 14 19 1014.8 1014.7 0.0
31/05:00am 21.9 19.8 17.1 74 2.9 SSE 24 33 13 18 1014.5 1014.4 0.0
31/04:30am 21.9 19.8 17.1 74 2.9 SE 24 32 13 17 1014.4 1014.3 0.0
31/04:00am 21.9 20.4 16.8 73 3.1 SE 20 26 11 14 1014.4 1014.3 0.0
31/03:30am 21.9 19.6 16.6 72 3.2 SE 24 32 13 17 1014.5 1014.4 0.0
31/03:00am 22.0 19.8 16.9 73 3.1 SE 24 32 13 17 1014.6 1014.5 0.0
31/02:30am 22.0 19.7 16.7 72 3.2 SE 24 33 13 18 1014.9 1014.8 0.0
31/02:00am 21.8 20.2 16.5 72 3.2 SE 20 28 11 15 1015.1 1015.0 0.0
31/01:30am 22.2 19.5 16.7 71 3.4 SE 26 35 14 19 1015.4 1015.3 0.0
31/01:00am 22.0 19.9 16.3 70 3.4 SE 22 32 12 17 1015.8 1015.7 0.0
31/12:30am 22.1 20.1 16.4 70 3.5 SE 22 32 12 17 1016.3 1016.2 0.0
31/12:00am 22.2 19.7 16.2 69 3.6 SE 24 32 13 17 1016.7 1016.6 0.0
 
Date/Time
EST
Temp
°C
App
Temp
°C
Dew
Point
Rel
Hum
%
Delta-T
°C
Wind Press
QNH
hPa
Press
MSL
hPa
Rain
since 9 am
mm
Dir
 
Spd
km/h
Gust
km/h
Spd
kts
Gust
kts
30/11:30pm 22.2 20.0 16.0 68 3.7 SE 22 30 12 16 1016.8 1016.7 0.0
30/11:00pm 22.4 19.1 16.0 67 3.9 SE 28 37 15 20 1016.9 1016.8 0.0
30/10:30pm 22.5 19.2 16.1 67 3.9 SE 28 39 15 21 1016.9 1016.8 0.0
30/10:00pm 22.5 19.7 16.3 68 3.8 SE 26 35 14 19 1016.9 1016.8 0.0
30/09:30pm 22.9 19.7 16.2 66 4.1 SE 28 41 15 22 1016.9 1016.8 0.0
30/09:00pm 22.8 19.3 16.4 67 3.9 SE 30 41 16 22 1016.8 1016.7 0.0
30/08:38pm 23.0 19.4 16.3 66 4.1 SE 30 48 16 26 1016.8 1016.7 0.0
30/08:30pm 22.9 19.3 16.2 66 4.1 SE 30 43 16 23 1016.7 1016.6 0.0
30/08:00pm 22.6 18.8 15.7 65 4.1 SE 30 43 16 23 1016.5 1016.4 0.0
30/07:30pm 22.5 18.7 15.8 66 4.0 SE 30 41 16 22 1016.3 1016.2 0.0
30/07:00pm 22.6 18.1 15.4 64 4.3 SE 33 43 18 23 1016.2 1016.1 0.0
30/06:30pm 22.7 18.2 15.5 64 4.3 SE 33 46 18 25 1015.5 1015.4 0.0
30/06:00pm 22.8 18.0 15.6 64 4.3 SSE 35 46 19 25 1015.5 1015.4 0.0
30/05:30pm 23.3 18.2 15.9 63 4.5 SSE 37 48 20 26 1015.1 1015.0 0.0
30/05:00pm 23.5 18.8 15.8 62 4.6 SSE 35 48 19 26 1015.0 1014.9 0.0
30/04:30pm 24.3 20.3 16.6 62 4.7 SSE 33 46 18 25 1014.7 1014.6 0.0
30/04:00pm 23.6 18.3 15.4 60 4.9 SSE 37 46 20 25 1014.8 1014.7 0.0
30/03:30pm 24.3 19.4 15.2 57 5.5 SSE 35 48 19 26 1014.7 1014.6 0.0
30/03:00pm 24.2 19.1 14.9 56 5.5 SSE 35 48 19 26 1014.8 1014.7 0.0
30/02:30pm 24.4 19.6 15.6 58 5.3 SSE 35 46 19 25 1015.1 1015.0 0.0
30/02:00pm 24.6 20.4 16.3 60 5.1 SSE 33 46 18 25 1015.4 1015.3 0.0
30/01:30pm 24.6 20.6 16.6 61 4.9 SSE 33 44 18 24 1015.7 1015.6 0.0
30/01:00pm 24.5 20.5 16.2 60 5.1 SSE 32 43 17 23 1016.2 1016.1 0.0
30/12:30pm 24.8 20.8 16.8 61 4.9 SSE 33 46 18 25 1016.4 1016.3 0.0
30/12:00pm 24.3 20.5 17.1 64 4.4 SE 33 43 18 23 1016.8 1016.7 0.0
30/11:30am 24.6 21.0 17.6 65 4.4 SSE 33 44 18 24 1017.0 1016.9 0.0
30/11:00am 24.7 21.9 18.2 67 4.1 SE 30 44 16 24 1017.2 1017.1 0.0
30/10:30am 24.5 21.0 18.0 67 4.1 SE 33 44 18 24 1017.4 1017.3 0.0
30/10:00am 24.7 22.0 19.3 72 3.5 SE 32 43 17 23 1017.5 1017.4 0.0
30/09:30am 23.5 20.6 18.8 75 3.0 SSE 32 43 17 23 1017.7 1017.6 0.0
30/09:00am 23.0 19.9 18.3 75 2.9 SSE 32 44 17 24 1017.6 1017.5 0.6
30/08:30am 23.0 19.6 17.7 72 3.3 SE 32 44 17 24 1017.5 1017.4 0.6
30/08:00am 22.5 19.8 18.5 78 2.5 SE 30 43 16 23 1016.8 1016.7 0.6
30/07:31am 21.3 17.7 17.7 80 2.2 SE 33 52 18 28 1016.7 1016.6 0.6
30/07:30am 21.4 17.5 17.8 80 2.2 SE 35 52 19 28 1016.8 1016.7 0.6
30/07:07am 20.7 16.7 17.7 83 1.8 SSE 35 56 19 30 1016.7 1016.6 0.6
30/07:00am 20.7 15.7 17.9 84 1.7 SSE 41 54 22 29 1016.6 1016.5 0.6
30/06:30am 20.8 17.4 18.2 85 1.6 SSE 33 52 18 28 1016.1 1016.0 0.6
30/06:00am 21.2 19.5 18.2 83 1.9 SE 24 33 13 18 1015.8 1015.7 0.0
30/05:30am 22.0 19.0 18.6 81 2.1 SSE 32 43 17 23 1015.5 1015.4 0.0
30/05:00am 21.8 19.5 18.4 81 2.1 SSE 28 41 15 22 1015.2 1015.1 0.0
30/04:30am 21.9 19.1 18.3 80 2.3 SSE 30 39 16 21 1015.1 1015.0 0.0
30/04:00am 22.2 20.0 18.6 80 2.3 SE 28 37 15 20 1015.3 1015.2 0.0
30/03:48am 22.1 19.7 18.3 79 2.4 SE 28 46 15 25 1015.3 1015.2 0.0
30/03:30am 22.3 19.2 18.3 78 2.5 SSE 32 41 17 22 1015.3 1015.2 0.0
30/03:00am 22.3 19.2 18.3 78 2.5 SSE 32 39 17 21 1015.4 1015.3 0.0
30/02:30am 22.7 20.0 18.5 77 2.6 SE 30 41 16 22 1015.6 1015.5 0.0
30/02:00am 22.7 20.0 18.5 77 2.6 SE 30 41 16 22 1015.8 1015.7 0.0
30/01:30am 22.6 20.3 18.4 77 2.6 SE 28 37 15 20 1015.9 1015.8 0.0
30/01:00am 22.7 19.9 18.3 76 2.8 SE 30 44 16 24 1015.9 1015.8 0.0
30/12:30am 22.9 19.8 18.4 76 2.8 SE 32 41 17 22 1016.2 1016.1 0.0
30/12:00am 22.7 20.4 18.5 77 2.6 SSE 28 41 15 22 1016.7 1016.6 0.0
 
Date/Time
EST
Temp
°C
App
Temp
°C
Dew
Point
Rel
Hum
%
Delta-T
°C
Wind Press
QNH
hPa
Press
MSL
hPa
Rain
since 9 am
mm
Dir
 
Spd
km/h
Gust
km/h
Spd
kts
Gust
kts
29/11:30pm 22.8 19.7 18.3 76 2.8 SSE 32 44 17 24 1016.8 1016.7 0.0
29/11:00pm 22.5 20.0 18.1 76 2.7 SSE 28 41 15 22 1016.9 1016.8 0.0
29/10:30pm 22.6 18.6 17.7 74 3.0 SSE 35 50 19 27 1017.0 1016.9 0.0
29/10:00pm 22.8 19.3 17.9 74 3.0 SE 33 44 18 24 1016.9 1016.8 0.0
29/09:30pm 22.7 18.8 17.8 74 3.0 SSE 35 46 19 25 1017.2 1017.1 0.0
29/09:00pm 22.8 19.3 17.9 74 3.1 SSE 33 44 18 24 1016.8 1016.7 0.0
29/08:30pm 22.8 19.3 17.5 72 3.3 SSE 32 39 17 21 1016.7 1016.6 0.0
29/08:00pm 22.9 19.4 17.4 71 3.4 SSE 32 46 17 25 1016.6 1016.5 0.0
29/07:30pm 22.7 19.0 16.9 70 3.6 SE 32 44 17 24 1016.0 1015.9 0.0
29/07:00pm 22.7 18.8 16.5 68 3.8 SE 32 43 17 23 1015.7 1015.6 0.0
29/06:30pm 23.0 18.5 16.3 66 4.1 SE 35 48 19 26 1015.5 1015.4 0.0
29/06:00pm 23.3 18.2 15.9 63 4.5 SE 37 52 20 28 1015.4 1015.3 0.0
29/05:30pm 23.7 19.1 16.0 62 4.7 SE 35 46 19 25 1015.1 1015.0 0.0
29/05:16pm 24.0 19.0 16.0 61 4.9 SE 37 56 20 30 1015.1 1015.0 0.0
29/05:00pm 24.2 19.1 15.9 59 5.0 SE 37 50 20 27 1014.9 1014.8 0.0
29/04:30pm 24.7 19.0 16.2 59 5.2 SSE 41 50 22 27 1015.0 1014.9 0.0
29/04:11pm 24.8 19.7 15.7 57 5.5 SSE 37 56 20 30 1014.9 1014.8 0.0
29/04:00pm 25.3 20.0 16.2 57 5.6 SSE 39 54 21 29 1015.0 1014.9 0.0
29/03:30pm 25.4 19.9 15.7 55 5.9 SE 39 52 21 28 1014.9 1014.8 0.0
29/03:07pm 25.7 20.2 15.7 54 6.1 SSE 39 57 21 31 1015.2 1015.1 0.0
29/03:00pm 25.9 20.6 16.2 55 5.9 SE 39 54 21 29 1015.4 1015.3 0.0
29/02:30pm 25.9 20.6 16.2 55 6.0 SE 39 54 21 29 1015.7 1015.6 0.0
29/02:00pm 26.1 20.6 15.8 53 6.3 SE 39 56 21 30 1015.7 1015.6 0.0
29/01:30pm 26.1 20.3 16.1 54 6.1 SE 41 54 22 29 1016.0 1015.9 0.0
29/01:13pm 25.9 22.0 15.6 53 6.3 SSE 30 50 16 27 1016.0 1015.9 0.0
29/01:00pm 26.3 28.2 15.7 52 6.5 CALM 0 0 0 0 1016.1 1016.0 0.0
29/12:30pm 26.0 27.8 15.4 52 6.4 CALM 0 0 0 0 1016.6 1016.5 0.0
29/12:00pm 26.1 28.1 16.1 54 6.1 CALM 0 0 0 0 1017.0 1016.9 0.0
29/11:30am 26.4 28.4 16.0 52 6.4 CALM 0 0 0 0 1017.3 1017.2 0.0
29/11:00am 26.4 28.3 15.8 52 6.5 CALM 0 0 0 0 1017.6 1017.5 0.0
29/10:30am 25.4 27.1 15.1 53 6.2 CALM 0 0 0 0 1017.7 1017.6 0.0
29/10:00am 25.2 26.8 14.9 52 6.2 CALM 0 0 0 0 1017.7 1017.6 0.0
29/09:55am 24.6 19.0 14.4 53 6.1 SE 37 56 20 30 1017.8 1017.7 0.0
29/09:30am 24.9 19.5 15.0 54 5.9 SE 37 54 20 29 1017.6 1017.5 0.0
29/09:04am 24.2 19.0 14.6 55 5.7 SE 35 56 19 30 1017.7 1017.6 0.0
29/09:00am 24.2 19.5 14.9 56 5.5 SE 33 44 18 24 1017.6 1017.5 0.0
29/08:49am 24.3 18.9 15.0 56 5.6 SE 37 50 20 27 1017.5 1017.4 0.0
29/08:30am 24.2 25.9 15.1 56 5.5 CALM 0 52 0 28 1017.4 1017.3 0.0
29/08:00am 23.6 25.3 15.1 59 5.1 CALM 0 17 0 9 1017.2 1017.1 0.0
29/07:30am 22.6 24.0 14.4 60 4.8 CALM 0 0 0 0 1017.0 1016.9 0.0
29/07:00am 22.2 23.6 14.3 61 4.6 CALM 0 0 0 0 1016.7 1016.6 0.0
29/06:30am 21.7 22.9 13.9 61 4.5 CALM 0 0 0 0 1016.5 1016.4 0.0
29/06:00am 21.8 23.0 13.7 60 4.7 CALM 0 0 0 0 1016.5 1016.4 0.0
29/05:30am 21.8 23.0 13.7 60 4.7 CALM 0 0 0 0 1016.4 1016.3 0.0
29/05:00am 21.7 22.9 13.9 61 4.5 CALM 0 0 0 0 1015.9 1015.8 0.0
29/04:30am 21.6 22.7 13.5 60 4.7 CALM 0 0 0 0 1015.9 1015.8 0.0
29/04:00am 21.4 22.4 13.3 60 4.6 CALM 0 0 0 0 1015.9 1015.8 0.0
29/03:30am 21.5 22.5 13.2 59 4.8 CALM 0 0 0 0 1016.0 1015.9 0.0
29/03:00am 21.7 22.8 13.6 60 4.7 CALM 0 0 0 0 1016.0 1015.9 0.0
29/02:30am 21.6 22.7 13.5 60 4.7 CALM 0 0 0 0 1016.4 1016.3 0.0
29/02:00am 21.7 22.8 13.6 60 4.7 CALM 0 0 0 0 1016.8 1016.7 0.0
29/01:30am 21.7 22.9 13.9 61 4.5 CALM 0 0 0 0 1016.8 1016.7 0.0
29/01:00am 21.9 23.1 13.8 60 4.7 CALM 0 0 0 0 1017.1 1017.0 0.0
29/12:30am 21.9 23.3 14.3 62 4.4 CALM 0 0 0 0 1017.3 1017.2 0.0
29/12:00am 21.6 22.9 14.0 62 4.4 CALM 0 0 0 0 1017.6 1017.5 0.0
 
Date/Time
EST
Temp
°C
App
Temp
°C
Dew
Point
Rel
Hum
%
Delta-T
°C
Wind Press
QNH
hPa
Press
MSL
hPa
Rain
since 9 am
mm
Dir
 
Spd
km/h
Gust
km/h
Spd
kts
Gust
kts
28/11:30pm 21.9 23.3 14.3 62 4.4 CALM 0 0 0 0 1017.7 1017.6 0.0
28/11:00pm 22.0 23.2 13.9 60 4.7 CALM 0 0 0 0 1017.7 1017.6 0.0
28/10:30pm 22.0 23.0 13.1 57 5.1 CALM 0 0 0 0 1017.7 1017.6 0.0
28/10:00pm 22.2 23.3 13.5 57 5.0 CALM 0 0 0 0 1017.7 1017.6 0.0
28/09:30pm 22.1 23.1 13.2 57 5.1 CALM 0 0 0 0 1017.7 1017.6 0.0
28/09:00pm 22.2 23.2 13.3 57 5.1 CALM 0 0 0 0 1017.6 1017.5 0.0
28/08:30pm 22.1 23.1 13.2 57 5.1 CALM 0 0 0 0 1017.4 1017.3 0.0
28/08:00pm 22.0 23.4 14.4 62 4.5 CALM 0 0 0 0 1017.2 1017.1 0.0
28/07:30pm 22.0 23.7 15.1 65 4.1 CALM 0 0 0 0 1016.9 1016.8 0.0
28/07:00pm 22.1 23.7 15.0 64 4.2 CALM 0 0 0 0 1016.7 1016.6 0.0
28/06:30pm 22.2 23.9 15.3 65 4.1 CALM 0 0 0 0 1016.4 1016.3 0.0
28/06:00pm 22.6 24.4 15.4 64 4.3 CALM 0 0 0 0 1016.0 1015.9 0.0
28/05:30pm 23.2 24.9 15.3 61 4.7 CALM 0 0 0 0 1015.9 1015.8 0.0
28/05:00pm 24.0 25.8 15.5 59 5.1 CALM 0 0 0 0 1015.6 1015.5 0.0
28/04:30pm 24.5 26.0 14.6 54 5.9 CALM 0 0 0 0 1015.2 1015.1 0.0
28/04:00pm 25.1 26.1 13.3 48 6.9 CALM 0 0 0 0 1015.1 1015.0 0.0
28/03:30pm 25.6 26.7 13.5 47 7.1 CALM 0 0 0 0 1015.3 1015.2 0.0
28/03:00pm 26.4 27.7 14.2 47 7.3 CALM 0 0 0 0 1015.3 1015.2 0.0
28/02:30pm 26.0 27.1 13.5 46 7.3 CALM 0 0 0 0 1015.6 1015.5 0.0

Other Formats:

Comma delimited format used in spreadsheet applications
http://www.bom.gov.au/fwo/IDQ60801/IDQ60801.94188.axf

JavaScript Object Notation format (JSON) in row-major order
http://www.bom.gov.au/fwo/IDQ60801/IDQ60801.94188.json